createdAt,value
2018-11-05T00:01:37.497Z,1999.90
2018-11-05T00:04:05.486Z,1999.90
2018-11-05T00:06:33.351Z,1999.90
2018-11-05T00:09:01.426Z,1999.90
2018-11-05T00:11:29.330Z,1999.90
2018-11-05T00:13:57.206Z,1999.90
2018-11-05T00:16:25.067Z,1999.90
2018-11-05T00:18:52.942Z,1999.90
2018-11-05T00:21:20.905Z,1999.90
2018-11-05T00:23:48.758Z,1999.90
2018-11-05T00:26:16.646Z,1999.90
2018-11-05T00:28:44.507Z,1999.90
2018-11-05T00:31:12.430Z,1999.90
2018-11-05T00:33:40.293Z,1999.90
2018-11-05T00:36:08.174Z,1999.90
2018-11-05T00:38:36.606Z,1999.90
2018-11-05T00:41:04.518Z,1999.90
2018-11-05T00:43:32.374Z,1999.90
2018-11-05T00:46:00.260Z,1999.90
2018-11-05T00:48:28.145Z,1999.90
2018-11-05T00:50:56.027Z,1999.90
2018-11-05T00:53:23.894Z,1999.90
2018-11-05T00:55:51.795Z,1999.90
2018-11-05T00:58:19.678Z,1999.90
2018-11-05T01:00:47.550Z,1999.90
2018-11-05T01:03:15.433Z,1999.90
2018-11-05T01:05:43.282Z,1999.90
2018-11-05T01:08:11.180Z,1999.90
2018-11-05T01:10:39.034Z,1999.90
2018-11-05T01:13:06.945Z,1999.90
2018-11-05T01:15:34.835Z,1999.90
2018-11-05T01:18:02.729Z,1999.90
2018-11-05T01:20:30.603Z,1999.90
2018-11-05T01:22:58.466Z,1999.90
2018-11-05T01:25:26.312Z,1999.90
2018-11-05T01:27:54.201Z,1999.90
2018-11-05T01:30:22.053Z,1999.90
2018-11-05T01:32:49.921Z,1999.90
2018-11-05T01:35:17.786Z,1999.90
2018-11-05T01:37:45.672Z,1999.90
2018-11-05T01:40:14.602Z,1999.90
2018-11-05T01:42:42.586Z,1999.90
2018-11-05T01:45:11.642Z,1999.90
2018-11-05T01:47:39.686Z,1999.90
2018-11-05T01:50:08.182Z,1999.90
2018-11-05T01:52:36.050Z,1999.90
2018-11-05T01:55:04.131Z,1999.90
2018-11-05T01:57:31.986Z,1999.90
2018-11-05T01:59:59.850Z,1999.90
2018-11-05T02:02:27.734Z,1999.90
2018-11-05T02:04:55.635Z,1999.90
2018-11-05T02:07:25.017Z,1999.90
2018-11-05T02:09:54.054Z,1999.90
2018-11-05T02:12:23.186Z,1999.90
2018-11-05T02:14:51.532Z,1999.90
2018-11-05T02:17:20.562Z,1999.90
2018-11-05T02:19:49.370Z,1999.90
2018-11-05T02:22:17.931Z,1999.90
2018-11-05T02:24:46.286Z,1999.90
2018-11-05T02:27:14.951Z,1999.90
2018-11-05T02:29:43.910Z,1999.90
2018-11-05T02:32:12.559Z,1999.90
2018-11-05T02:34:40.940Z,1999.90
2018-11-05T02:37:09.395Z,1999.90
2018-11-05T02:39:37.894Z,1999.90
2018-11-05T02:42:06.200Z,1999.90
2018-11-05T02:44:35.122Z,1999.90
2018-11-05T02:47:03.638Z,1999.90
2018-11-05T02:49:32.596Z,1999.90
2018-11-05T02:52:01.351Z,1999.90
2018-11-05T02:54:29.897Z,1999.90
2018-11-05T02:56:58.519Z,1999.90
2018-11-05T02:59:26.895Z,1999.90
2018-11-05T03:01:55.287Z,1999.90
2018-11-05T03:04:25.189Z,1999.90
2018-11-05T03:06:54.129Z,1999.90
2018-11-05T03:09:22.866Z,1999.90
2018-11-05T03:11:51.430Z,1999.90
2018-11-05T03:14:20.362Z,1999.90
2018-11-05T03:16:48.875Z,1999.90
2018-11-05T03:19:18.609Z,1999.90
2018-11-05T03:21:48.022Z,1999.90
2018-11-05T03:24:15.956Z,1999.90
2018-11-05T03:26:44.318Z,1999.90
2018-11-05T03:29:13.107Z,1999.90
2018-11-05T03:31:41.968Z,1999.90
2018-11-05T03:34:09.850Z,1999.90
2018-11-05T03:36:38.267Z,1999.90
2018-11-05T03:39:08.543Z,1999.90
2018-11-05T03:41:38.445Z,1999.90
2018-11-05T03:44:07.777Z,1999.90
2018-11-05T03:46:36.754Z,1999.90
2018-11-05T03:49:05.590Z,1999.90
2018-11-05T03:51:34.151Z,1999.90
2018-11-05T03:54:02.740Z,1999.90
2018-11-05T03:56:31.313Z,1999.90
2018-11-05T03:58:59.820Z,1999.90
2018-11-05T04:01:27.810Z,1999.90
2018-11-05T04:03:56.418Z,1999.90
2018-11-05T04:06:24.599Z,1999.90
2018-11-05T04:08:52.707Z,1999.90
2018-11-05T04:11:20.586Z,1999.90
2018-11-05T04:13:49.230Z,1999.90
2018-11-05T04:16:17.674Z,1999.90
2018-11-05T04:18:45.845Z,1999.90
2018-11-05T04:21:14.385Z,1999.90
2018-11-05T04:23:42.360Z,1999.90
2018-11-05T04:26:10.434Z,1999.90
2018-11-05T04:28:38.495Z,1999.90
2018-11-05T04:31:06.511Z,1999.90
2018-11-05T04:33:34.513Z,1999.90
2018-11-05T04:36:02.436Z,1999.90
2018-11-05T04:38:30.444Z,1999.90
2018-11-05T04:40:58.806Z,1999.90
2018-11-05T04:43:27.152Z,1999.90
2018-11-05T04:45:55.096Z,1999.90
2018-11-05T04:48:23.294Z,1999.90
2018-11-05T04:50:51.911Z,1999.90
2018-11-05T04:53:19.756Z,1999.90
2018-11-05T04:55:47.603Z,1999.90
2018-11-05T04:58:15.479Z,1928.53
2018-11-05T05:00:43.335Z,1994.07
2018-11-05T05:03:11.222Z,1814.90
2018-11-05T05:05:39.026Z,1889.17
2018-11-05T05:08:06.875Z,1999.90
2018-11-05T05:10:34.796Z,1962.07
2018-11-05T05:13:02.643Z,1999.90
2018-11-05T05:15:30.495Z,1946.73
2018-11-05T05:17:58.332Z,1994.50
2018-11-05T05:20:26.180Z,1997.20
2018-11-05T05:22:54.212Z,1937.30
2018-11-05T05:25:21.887Z,1966.17
2018-11-05T05:27:49.723Z,1976.10
2018-11-05T05:30:18.647Z,1950.10
2018-11-05T05:32:47.531Z,1905.70
2018-11-05T05:35:15.896Z,1763.20
2018-11-05T05:37:43.750Z,1926.80
2018-11-05T05:40:11.614Z,1917.53
2018-11-05T05:42:40.194Z,1807.47
2018-11-05T05:45:09.098Z,1816.30
2018-11-05T05:47:36.970Z,1543.67
2018-11-05T05:50:06.171Z,1692.13
2018-11-05T05:52:33.987Z,1699.57
2018-11-05T05:55:01.848Z,1624.83
2018-11-05T05:57:29.692Z,1510.63
2018-11-05T05:59:57.654Z,1540.33
2018-11-05T06:02:25.456Z,1604.27
2018-11-05T06:04:53.345Z,1580.10
2018-11-05T06:07:21.184Z,1678.47
2018-11-05T06:09:49.023Z,1563.23
2018-11-05T06:12:16.892Z,1547.30
2018-11-05T06:14:44.729Z,1660.37
2018-11-05T06:17:12.575Z,1719.97
2018-11-05T06:19:40.475Z,1757.70
2018-11-05T06:22:08.648Z,1611.13
2018-11-05T06:24:36.509Z,1820.53
2018-11-05T06:27:04.379Z,1690.53
2018-11-05T06:29:32.224Z,1478.17
2018-11-05T06:32:00.076Z,1469.97
2018-11-05T06:34:27.943Z,1615.93
2018-11-05T06:36:55.797Z,1596.70
2018-11-05T06:39:23.666Z,1629.27
2018-11-05T06:41:51.605Z,1544.70
2018-11-05T06:44:19.630Z,1639.70
2018-11-05T06:46:47.399Z,1471.10
2018-11-05T06:49:15.241Z,1501.77
2018-11-05T06:51:43.075Z,1428.53
2018-11-05T06:54:10.914Z,1581.87
2018-11-05T06:56:38.770Z,1606.70
2018-11-05T06:59:06.617Z,1635.33
2018-11-05T07:01:34.475Z,1281.33
2018-11-05T07:04:02.317Z,1568.40
2018-11-05T07:06:30.162Z,1458.87
2018-11-05T07:08:58.002Z,1540.40
2018-11-05T07:11:25.916Z,1684.40
2018-11-05T07:13:53.696Z,1538.60
2018-11-05T07:16:21.547Z,1511.60
2018-11-05T07:18:49.672Z,1424.30
2018-11-05T07:21:17.631Z,1521.90
2018-11-05T07:23:45.469Z,1427.57
2018-11-05T07:26:13.321Z,1404.93
2018-11-05T07:28:41.183Z,1514.13
2018-11-05T07:31:09.035Z,1423.83
2018-11-05T07:33:36.921Z,1461.37
2018-11-05T07:36:04.759Z,1441.37
2018-11-05T07:38:32.598Z,1440.10
2018-11-05T07:41:00.442Z,1471.53
2018-11-05T07:43:28.299Z,1331.43
2018-11-05T07:45:56.146Z,1328.23
2018-11-05T07:48:24.011Z,1316.70
2018-11-05T07:50:51.967Z,1392.90
2018-11-05T07:53:19.768Z,1907.13
2018-11-05T07:55:47.606Z,1352.50
2018-11-05T07:58:15.471Z,1431.80
2018-11-05T08:00:48.927Z,1362.73
2018-11-05T08:03:16.787Z,1999.90
2018-11-05T08:05:44.663Z,1325.90
2018-11-05T08:08:12.567Z,1274.90
2018-11-05T08:10:40.386Z,1352.40
2018-11-05T08:13:08.255Z,1302.30
2018-11-05T08:15:36.125Z,1999.90
2018-11-05T08:18:03.971Z,1298.83
2018-11-05T08:20:31.822Z,1527.43
2018-11-05T08:22:59.695Z,1571.90
2018-11-05T08:25:27.539Z,1999.90
2018-11-05T08:27:55.406Z,1351.50
2018-11-05T08:30:25.258Z,1284.83
2018-11-05T08:32:53.343Z,1248.73
2018-11-05T08:35:21.246Z,1209.77
2018-11-05T08:37:49.638Z,1280.13
2018-11-05T08:40:21.948Z,1301.53
2018-11-05T08:42:50.535Z,1312.43
2018-11-05T08:45:20.546Z,1197.20
2018-11-05T08:47:54.942Z,1091.57
2018-11-05T08:50:23.570Z,1228.13
2018-11-05T08:52:51.454Z,1237.07
2018-11-05T08:55:20.639Z,1310.50
2018-11-05T08:57:48.554Z,1240.10
2018-11-05T09:00:22.527Z,1288.00
2018-11-05T09:02:50.673Z,1210.60
2018-11-05T09:05:18.794Z,1153.90
2018-11-05T09:07:47.376Z,1186.40
2018-11-05T09:10:15.359Z,1234.60
2018-11-05T09:12:43.402Z,1228.27
2018-11-05T09:15:12.746Z,1166.00
2018-11-05T09:17:41.365Z,1311.93
2018-11-05T09:20:10.227Z,1675.60
2018-11-05T09:22:38.535Z,1161.17
2018-11-05T09:25:06.649Z,1183.87
2018-11-05T09:27:34.596Z,1211.00
2018-11-05T09:30:02.444Z,1353.23
2018-11-05T09:32:30.288Z,1296.03
2018-11-05T09:34:58.137Z,1184.33
2018-11-05T09:37:25.983Z,1250.50
2018-11-05T09:39:53.846Z,1199.00
2018-11-05T09:42:21.703Z,1258.77
2018-11-05T09:44:49.667Z,1195.13
2018-11-05T09:47:17.517Z,1287.27
2018-11-05T09:49:45.368Z,1228.93
2018-11-05T09:52:13.236Z,1186.20
2018-11-05T09:54:41.119Z,1160.20
2018-11-05T09:57:08.980Z,1213.77
2018-11-05T09:59:36.862Z,1224.47
2018-11-05T10:02:04.710Z,1288.30
2018-11-05T10:04:32.838Z,1250.73
2018-11-05T10:07:01.126Z,1254.63
2018-11-05T10:09:29.021Z,1234.10
2018-11-05T10:11:56.829Z,1209.17
2018-11-05T10:14:24.684Z,1331.47
2018-11-05T10:16:52.531Z,1212.63
2018-11-05T10:19:20.380Z,1430.70
2018-11-05T10:21:48.229Z,1424.27
2018-11-05T10:24:16.083Z,1181.03
2018-11-05T10:26:43.924Z,1212.83
2018-11-05T10:29:11.793Z,1200.80
2018-11-05T10:31:39.759Z,1171.27
2018-11-05T10:34:07.625Z,1174.10
2018-11-05T10:36:35.486Z,1224.43
2018-11-05T10:39:03.679Z,1176.23
2018-11-05T10:41:31.530Z,1188.63
2018-11-05T10:43:59.403Z,1339.33
2018-11-05T10:46:27.248Z,1200.37
2018-11-05T10:48:55.104Z,1266.33
2018-11-05T10:51:23.040Z,1260.57
2018-11-05T10:53:50.812Z,1301.30
2018-11-05T10:56:18.680Z,1225.27
2018-11-05T10:58:46.544Z,1367.33
2018-11-05T11:01:15.668Z,1225.33
2018-11-05T11:03:49.263Z,1946.73
2018-11-05T11:06:17.083Z,1572.60
2018-11-05T11:08:44.924Z,1675.83
2018-11-05T11:11:12.784Z,1281.93
2018-11-05T11:13:40.644Z,1369.47
2018-11-05T11:16:08.495Z,1248.37
2018-11-05T11:18:36.341Z,1245.43
2018-11-05T11:21:04.561Z,1271.77
2018-11-05T11:23:32.423Z,1331.70
2018-11-05T11:26:00.287Z,1424.50
2018-11-05T11:28:28.217Z,1266.73
2018-11-05T11:30:55.996Z,1308.93
2018-11-05T11:33:23.831Z,1254.00
2018-11-05T11:35:51.679Z,1256.97
2018-11-05T11:38:19.524Z,1233.40
2018-11-05T11:40:47.384Z,1253.00
2018-11-05T11:43:15.226Z,1265.00
2018-11-05T11:45:43.107Z,1294.93
2018-11-05T11:48:10.957Z,1377.73
2018-11-05T11:50:38.811Z,1254.07
2018-11-05T11:53:06.779Z,1886.30
2018-11-05T11:55:34.631Z,1246.50
2018-11-05T11:58:02.430Z,1237.67
2018-11-05T12:00:30.279Z,1238.60
2018-11-05T12:02:58.140Z,1332.50
2018-11-05T12:05:26.092Z,1295.27
2018-11-05T12:07:53.822Z,1279.47
2018-11-05T12:10:22.543Z,1498.73
2018-11-05T12:12:50.397Z,1192.93
2018-11-05T12:15:18.999Z,1474.77
2018-11-05T12:17:47.883Z,1307.97
2018-11-05T12:20:16.911Z,1257.10
2018-11-05T12:22:45.475Z,1346.80
2018-11-05T12:25:13.325Z,1226.20
2018-11-05T12:27:41.183Z,1252.83
2018-11-05T12:30:13.775Z,1203.43
2018-11-05T12:32:41.838Z,1234.33
2018-11-05T12:35:10.530Z,1232.23
2018-11-05T12:37:38.479Z,1198.50
2018-11-05T12:40:07.148Z,1225.93
2018-11-05T12:42:35.092Z,1266.77
2018-11-05T12:45:03.099Z,1215.10
2018-11-05T12:47:30.880Z,1364.00
2018-11-05T12:49:58.719Z,1320.93
2018-11-05T12:52:26.632Z,1242.03
2018-11-05T12:54:54.475Z,1255.00
2018-11-05T12:57:22.554Z,1448.57
2018-11-05T12:59:50.432Z,1324.83
2018-11-05T13:02:19.048Z,1359.93
2018-11-05T13:04:46.891Z,1395.13
2018-11-05T13:07:14.796Z,1268.30
2018-11-05T13:09:42.592Z,1316.27
2018-11-05T13:12:10.463Z,1479.63
2018-11-05T13:14:38.306Z,1558.40
2018-11-05T13:17:06.167Z,1427.80
2018-11-05T13:19:34.012Z,1302.90
2018-11-05T13:22:01.917Z,1346.37
2018-11-05T13:24:29.734Z,1257.80
2018-11-05T13:26:57.586Z,1341.07
2018-11-05T13:29:25.452Z,1374.87
2018-11-05T13:31:53.303Z,1342.57
2018-11-05T13:34:21.147Z,1359.37
2018-11-05T13:36:49.157Z,1373.27
2018-11-05T13:39:16.892Z,1504.90
2018-11-05T13:41:44.746Z,1365.27
2018-11-05T13:44:12.591Z,1297.17
2018-11-05T13:46:40.747Z,1277.23
2018-11-05T13:49:09.444Z,1235.30
2018-11-05T13:51:36.497Z,1235.47
2018-11-05T13:54:04.690Z,1219.07
2018-11-05T13:56:32.476Z,1173.67
2018-11-05T13:59:00.430Z,1221.47
2018-11-05T14:01:28.286Z,1244.23
2018-11-05T14:03:56.138Z,1223.63
2018-11-05T14:06:23.982Z,1225.77
2018-11-05T14:08:51.855Z,1234.37
2018-11-05T14:11:19.734Z,1257.30
2018-11-05T14:13:47.662Z,1333.23
2018-11-05T14:16:15.502Z,1319.53
2018-11-05T14:18:43.373Z,1202.03
2018-11-05T14:21:11.215Z,1331.93
2018-11-05T14:23:39.060Z,1260.43
2018-11-05T14:26:06.976Z,1248.17
2018-11-05T14:28:34.941Z,1253.97
2018-11-05T14:31:02.632Z,1213.53
2018-11-05T14:33:30.491Z,1204.27
2018-11-05T14:35:58.403Z,1262.23
2018-11-05T14:38:26.209Z,1282.47
2018-11-05T14:40:54.055Z,1268.53
2018-11-05T14:43:21.976Z,1305.87
2018-11-05T14:45:49.888Z,1231.90
2018-11-05T14:48:17.756Z,1180.53
2018-11-05T14:50:45.631Z,1342.03
2018-11-05T14:53:13.410Z,1477.13
2018-11-05T14:55:41.247Z,1391.37
2018-11-05T14:58:09.110Z,1181.10
2018-11-05T15:00:36.983Z,1174.30
2018-11-05T15:03:04.898Z,1281.87
2018-11-05T15:05:32.714Z,1380.53
2018-11-05T15:08:00.572Z,1221.87
2018-11-05T15:10:28.412Z,1236.50
2018-11-05T15:12:56.275Z,1213.27
2018-11-05T15:15:24.135Z,1154.83
2018-11-05T15:17:52.086Z,1157.37
2018-11-05T15:20:21.275Z,1096.50
2018-11-05T15:22:49.033Z,1156.83
2018-11-05T15:25:17.122Z,1199.27
2018-11-05T15:27:44.992Z,1148.33
2018-11-05T15:30:15.399Z,1172.47
2018-11-05T15:32:43.474Z,1156.37
2018-11-05T15:35:11.331Z,1196.63
2018-11-05T15:37:40.034Z,1175.27
2018-11-05T15:40:08.362Z,1181.00
2018-11-05T15:42:36.245Z,1128.93
2018-11-05T15:45:04.399Z,1217.60
2018-11-05T15:47:32.243Z,1120.17
2018-11-05T15:50:00.095Z,1151.90
2018-11-05T15:52:28.249Z,1148.00
2018-11-05T15:54:55.786Z,1234.07
2018-11-05T15:57:23.630Z,1197.93
2018-11-05T15:59:51.476Z,1198.40
2018-11-05T16:02:19.315Z,1237.60
2018-11-05T16:04:47.159Z,1200.20
2018-11-05T16:07:14.997Z,1216.70
2018-11-05T16:09:42.867Z,1245.17
2018-11-05T16:12:10.717Z,1187.87
2018-11-05T16:14:38.578Z,1350.87
2018-11-05T16:17:06.428Z,1181.03
2018-11-05T16:19:34.287Z,1249.80
2018-11-05T16:22:02.137Z,1202.17
2018-11-05T16:24:30.086Z,1224.80
2018-11-05T16:26:58.274Z,1256.03
2018-11-05T16:29:26.188Z,1262.67
2018-11-05T16:31:54.155Z,1271.10
2018-11-05T16:34:21.975Z,1369.47
2018-11-05T16:36:49.840Z,1552.87
2018-11-05T16:39:17.701Z,1430.47
2018-11-05T16:41:45.643Z,1432.00
2018-11-05T16:44:13.411Z,1558.33
2018-11-05T16:46:41.434Z,1612.60
2018-11-05T16:49:09.281Z,1682.67
2018-11-05T16:51:37.135Z,1554.80
2018-11-05T16:54:05.527Z,1672.10
2018-11-05T16:56:33.740Z,1868.57
2018-11-05T16:59:01.627Z,1999.90
2018-11-05T17:01:29.694Z,1999.90
2018-11-05T17:03:57.340Z,1999.90
2018-11-05T17:06:25.208Z,1978.23
2018-11-05T17:08:53.071Z,1971.70
2018-11-05T17:11:20.935Z,1708.57
2018-11-05T17:13:48.811Z,1576.97
2018-11-05T17:16:16.653Z,1567.37
2018-11-05T17:18:54.547Z,1517.53
2018-11-05T17:21:22.967Z,1800.00
2018-11-05T17:23:50.835Z,1376.30
2018-11-05T17:26:18.706Z,1287.00
2018-11-05T17:28:46.568Z,1440.10
2018-11-05T17:31:14.427Z,1196.83
2018-11-05T17:33:42.418Z,1254.13
2018-11-05T17:36:10.252Z,1192.13
2018-11-05T17:38:38.080Z,1206.00
2018-11-05T17:41:06.136Z,1237.50
2018-11-05T17:43:34.023Z,1179.80
2018-11-05T17:46:01.942Z,1217.97
2018-11-05T17:51:04.315Z,1159.00
2018-11-05T17:53:32.331Z,1209.87
2018-11-05T17:56:00.181Z,1172.27
2018-11-05T17:58:28.079Z,1223.47
2018-11-05T18:00:55.928Z,1208.00
2018-11-05T18:03:23.771Z,1210.47
2018-11-05T18:05:51.691Z,1172.50
2018-11-05T18:08:19.575Z,1999.90
2018-11-05T18:10:47.418Z,1189.73
2018-11-05T18:13:15.375Z,1099.97
2018-11-05T18:15:43.313Z,1195.50
2018-11-05T18:18:11.129Z,1236.50
2018-11-05T18:20:39.024Z,1174.57
2018-11-05T18:23:06.899Z,1202.87
2018-11-05T18:25:34.748Z,1176.43
2018-11-05T18:28:02.717Z,1199.17
2018-11-05T18:30:30.690Z,1184.90
2018-11-05T18:32:58.651Z,1325.23
2018-11-05T18:35:26.495Z,1207.83
2018-11-05T18:37:54.402Z,1203.67
2018-11-05T18:40:22.275Z,1178.83
2018-11-05T18:42:50.471Z,1149.63
2018-11-05T18:45:18.378Z,1216.30
2018-11-05T18:47:46.234Z,1168.37
2018-11-05T18:50:15.145Z,1169.90
2018-11-05T18:52:51.345Z,1153.93
2018-11-05T18:55:28.213Z,1190.20
2018-11-05T18:57:56.565Z,1125.63
2018-11-05T19:00:25.687Z,1165.90
2018-11-05T19:02:55.168Z,1292.80
2018-11-05T19:05:24.137Z,1191.27
2018-11-05T19:07:52.010Z,1283.70
2018-11-05T19:10:19.894Z,1178.03
2018-11-05T19:12:48.166Z,1184.70
2018-11-05T19:15:19.788Z,1173.83
2018-11-05T19:17:48.887Z,1142.50
2018-11-05T19:20:20.424Z,1111.67
2018-11-05T19:22:51.312Z,1180.90
2018-11-05T19:25:21.166Z,1238.03
2018-11-05T19:27:49.720Z,1186.47
2018-11-05T19:30:22.789Z,1249.87
2018-11-05T19:32:53.640Z,1173.80
2018-11-05T19:35:21.819Z,1242.90
2018-11-05T19:37:49.679Z,1196.23
2018-11-05T19:40:18.067Z,1187.07
2018-11-05T19:42:46.826Z,1202.67
2018-11-05T19:45:16.004Z,1506.77
2018-11-05T19:47:43.856Z,1199.57
2018-11-05T19:50:13.194Z,1168.47
2018-11-05T19:52:43.652Z,1165.30
2018-11-05T19:55:15.460Z,1146.93
2018-11-05T19:57:46.652Z,1233.43
2018-11-05T20:00:18.569Z,1248.63
2018-11-05T20:02:50.368Z,1233.77
2018-11-05T20:05:20.944Z,1229.63
2018-11-05T20:07:49.735Z,1300.40
2018-11-05T20:10:19.514Z,1252.97
2018-11-05T20:12:47.567Z,1231.60
2018-11-05T20:22:21.840Z,1289.40
2018-11-05T20:24:49.679Z,1337.90
2018-11-05T20:27:17.640Z,1245.20
2018-11-05T20:29:45.482Z,1200.63
2018-11-05T20:32:13.617Z,1283.20
2018-11-05T20:34:41.278Z,1228.60
2018-11-05T20:37:09.127Z,1268.30
2018-11-05T20:39:37.138Z,1265.17
2018-11-05T20:42:05.271Z,1276.03
2018-11-05T20:44:33.118Z,1274.40
2018-11-05T20:47:01.016Z,1247.00
2018-11-05T20:49:28.947Z,1323.80
2018-11-05T20:52:59.674Z,1339.43
2018-11-05T20:55:27.545Z,1236.97
2018-11-05T20:57:55.391Z,1244.70
2018-11-05T21:00:26.683Z,1288.77
2018-11-05T21:02:56.459Z,1284.93
2018-11-05T21:05:28.255Z,1218.47
2018-11-05T21:07:56.108Z,1276.10
2018-11-05T21:10:23.974Z,1285.60
2018-11-05T21:12:55.208Z,1271.33
2018-11-05T21:15:24.010Z,1234.30
2018-11-05T21:17:52.563Z,1278.03
2018-11-05T21:20:20.520Z,1255.10
2018-11-05T21:22:49.213Z,1234.83
2018-11-05T21:25:17.203Z,1235.10
2018-11-05T21:27:45.739Z,1226.80
2018-11-05T21:30:15.568Z,1201.20
2018-11-05T21:32:43.828Z,1134.40
2018-11-05T21:35:14.399Z,1181.17
2018-11-05T21:37:47.661Z,1121.43
2018-11-05T21:40:19.899Z,1190.53
2018-11-05T21:42:50.962Z,1199.73
2018-11-05T21:45:19.949Z,1223.47
2018-11-05T21:47:49.409Z,1197.30
2018-11-05T21:50:19.552Z,1231.10
2018-11-05T21:52:50.060Z,1190.13
2018-11-05T21:55:19.026Z,1230.87
2018-11-05T21:57:52.016Z,1113.93
2018-11-05T22:00:24.568Z,1159.03
2018-11-05T22:02:58.756Z,1216.57
2018-11-05T22:05:27.827Z,1282.57
2018-11-05T22:07:56.921Z,1111.33
2018-11-05T22:10:25.554Z,1246.77
2018-11-05T22:12:53.951Z,1182.20
2018-11-05T22:15:23.046Z,1250.60
2018-11-05T22:17:53.302Z,1278.87
2018-11-05T22:20:24.089Z,1155.07
2018-11-05T22:22:52.519Z,1246.77
2018-11-05T22:25:20.415Z,1391.73
2018-11-05T22:27:48.546Z,1246.30
2018-11-05T22:30:16.437Z,1325.50
2018-11-05T22:32:44.446Z,1359.07
2018-11-05T22:35:12.874Z,1354.93
2018-11-05T22:37:41.250Z,1344.63
2018-11-05T22:40:10.959Z,1404.90
2018-11-05T22:42:40.516Z,1571.53
2018-11-05T22:45:14.779Z,1720.93
2018-11-05T22:47:44.685Z,1821.10
2018-11-05T22:50:14.322Z,1772.93
2018-11-05T22:52:47.534Z,1755.70
2018-11-05T22:55:20.566Z,1821.20
2018-11-05T22:57:52.954Z,1910.60
2018-11-05T23:00:29.662Z,1836.80
2018-11-05T23:03:05.398Z,1999.90
2018-11-05T23:05:36.761Z,1991.17
2018-11-05T23:08:07.790Z,1999.90
2018-11-05T23:10:39.467Z,1999.90
2018-11-05T23:13:10.487Z,1999.90
2018-11-05T23:15:44.199Z,1999.90
2018-11-05T23:18:15.555Z,1999.90
2018-11-05T23:20:45.570Z,1999.90
2018-11-05T23:23:13.695Z,1999.90
2018-11-05T23:25:41.603Z,1999.90
2018-11-05T23:28:09.466Z,1999.90
2018-11-05T23:30:37.311Z,1999.90
2018-11-05T23:33:05.155Z,1999.90
2018-11-05T23:35:33.003Z,1999.90
2018-11-05T23:38:00.860Z,1999.90
2018-11-05T23:40:28.710Z,1999.90
2018-11-05T23:42:56.560Z,1999.90
2018-11-05T23:45:24.407Z,1999.90
2018-11-05T23:47:52.259Z,1999.90
2018-11-05T23:50:20.107Z,1999.90
2018-11-05T23:52:47.962Z,1999.90
2018-11-05T23:55:15.812Z,1999.90
2018-11-05T23:57:43.657Z,1999.90
